LRSV/SCV METAR and TAF weather

Enter ICAO airport designator
Station Type Date Time Source
LRSV METAR 2022/01/26 19:30 UTC NOAA

LRSV 261930Z 31006KT 9999 -SN BKN050 02/00 Q1019


Station Type Date Time Source
LRSV Decoded METAR 2022/01/26 19:30 UTC NOAA

Suceava / Salcea, Romania (LRSV) 47-39N 026-15E 351M
Jan 26, 2022 - 02:30 PM EST / 2022.01.26 1930 UTC
Wind: from the NW (310 degrees) at 7 MPH (6 KT):0
Visibility: greater than 7 mile(s):0
Sky conditions: mostly cloudy
Weather: light snow
Temperature: 35 F (2 C)
Windchill: 28 F (-2 C):1
Dew Point: 32 F (0 C)
Relative Humidity: 86%
Pressure (altimeter): 30.09 in. Hg (1019 hPa)
ob: LRSV 261930Z 31006KT 9999 -SN BKN050 02/00 Q1019
cycle: 19

Station Type Date Time Source
LRSV TAF 2014/07/19 18:48 UTC NOAA

TAF LRSV 191800Z 1918/2024 CNL

Example: see airport list